createdAt,value
2018-09-01T00:02:19.347Z,1.27
2018-09-01T00:04:47.529Z,2.33
2018-09-01T00:07:15.699Z,1.77
2018-09-01T00:09:43.987Z,0.90
2018-09-01T00:12:12.156Z,1.07
2018-09-01T00:14:40.330Z,1.00
2018-09-01T00:17:10.196Z,0.70
2018-09-01T00:19:38.369Z,0.63
2018-09-01T00:22:06.584Z,0.70
2018-09-01T00:24:34.760Z,0.80
2018-09-01T00:27:02.932Z,0.70
2018-09-01T00:29:31.093Z,1.00
2018-09-01T00:31:59.368Z,0.90
2018-09-01T00:34:27.536Z,0.70
2018-09-01T00:36:55.705Z,1.53
2018-09-01T00:39:23.897Z,0.80
2018-09-01T00:41:52.066Z,0.80
2018-09-01T00:44:20.244Z,0.97
2018-09-01T00:46:48.418Z,0.90
2018-09-01T00:49:17.048Z,1.20
2018-09-01T00:51:45.844Z,1.53
2018-09-01T00:54:14.040Z,1.10
2018-09-01T00:56:42.236Z,1.00
2018-09-01T00:59:10.440Z,1.17
2018-09-01T01:01:39.219Z,0.90
2018-09-01T01:04:07.384Z,0.70
2018-09-01T01:06:35.551Z,0.80
2018-09-01T01:09:04.323Z,1.50
2018-09-01T01:11:32.505Z,1.00
2018-09-01T01:14:01.007Z,0.83
2018-09-01T01:16:29.182Z,0.90
2018-09-01T01:18:57.345Z,0.90
2018-09-01T01:21:25.528Z,0.90
2018-09-01T01:23:53.693Z,1.10
2018-09-01T01:26:21.868Z,1.10
2018-09-01T01:28:50.041Z,1.20
2018-09-01T01:31:18.199Z,1.37
2018-09-01T01:33:46.373Z,1.30
2018-09-01T01:36:14.552Z,1.37
2018-09-01T01:38:42.713Z,1.20
2018-09-01T01:41:10.882Z,1.20
2018-09-01T01:43:39.067Z,1.30
2018-09-01T01:46:07.245Z,1.10
2018-09-01T01:48:35.424Z,1.20
2018-09-01T01:51:03.774Z,1.30
2018-09-01T01:53:31.929Z,1.30
2018-09-01T01:56:00.143Z,1.13
2018-09-01T01:58:28.388Z,1.20
2018-09-01T02:00:56.573Z,1.10
2018-09-01T02:03:24.733Z,0.87
2018-09-01T02:05:52.905Z,0.90
2018-09-01T02:08:21.064Z,1.10
2018-09-01T02:10:49.239Z,1.10
2018-09-01T02:13:17.404Z,3.23
2018-09-01T02:15:45.588Z,1.20
2018-09-01T02:18:13.785Z,1.63
2018-09-01T02:20:41.944Z,2.17
2018-09-01T02:23:10.113Z,1.63
2018-09-01T02:25:38.276Z,1.10
2018-09-01T02:28:06.477Z,1.00
2018-09-01T02:30:34.676Z,1.10
2018-09-01T02:33:02.837Z,1.10
2018-09-01T02:35:30.996Z,1.23
2018-09-01T02:37:59.179Z,1.00
2018-09-01T02:40:27.344Z,1.00
2018-09-01T02:42:55.519Z,1.03
2018-09-01T02:45:23.684Z,1.10
2018-09-01T02:47:51.972Z,0.80
2018-09-01T02:50:20.140Z,1.10
2018-09-01T02:52:48.400Z,0.83
2018-09-01T02:55:16.557Z,1.00
2018-09-01T02:57:44.724Z,2.57
2018-09-01T03:00:18.225Z,1.57
2018-09-01T03:02:46.440Z,1.13
2018-09-01T03:05:15.897Z,0.87
2018-09-01T03:07:44.084Z,1.13
2018-09-01T03:10:12.264Z,0.70
2018-09-01T03:12:40.426Z,1.23
2018-09-01T03:15:09.133Z,0.80
2018-09-01T03:17:37.301Z,0.80
2018-09-01T03:20:05.513Z,0.90
2018-09-01T03:22:33.691Z,1.30
2018-09-01T03:25:01.852Z,1.00
2018-09-01T03:27:30.026Z,1.27
2018-09-01T03:29:58.180Z,1.03
2018-09-01T03:32:26.347Z,1.10
2018-09-01T03:34:54.504Z,1.07
2018-09-01T03:37:22.701Z,0.80
2018-09-01T03:39:50.823Z,1.13
2018-09-01T03:42:18.996Z,1.40
2018-09-01T03:44:47.156Z,0.90
2018-09-01T03:47:15.327Z,1.10
2018-09-01T03:49:43.525Z,1.13
2018-09-01T03:52:11.701Z,0.80
2018-09-01T03:54:40.320Z,0.90
2018-09-01T03:57:08.485Z,0.80
2018-09-01T03:59:36.665Z,0.90
2018-09-01T04:02:05.056Z,0.80
2018-09-01T04:04:33.218Z,1.20
2018-09-01T04:07:01.488Z,0.80
2018-09-01T04:09:29.653Z,1.27
2018-09-01T04:11:57.824Z,0.80
2018-09-01T04:14:25.985Z,1.10
2018-09-01T04:16:54.165Z,0.80
2018-09-01T04:19:22.328Z,1.07
2018-09-01T04:21:51.707Z,1.17
2018-09-01T04:24:19.884Z,0.80
2018-09-01T04:26:48.332Z,0.80
2018-09-01T04:29:17.247Z,1.00
2018-09-01T04:31:45.937Z,0.83
2018-09-01T04:34:14.116Z,0.70
2018-09-01T04:36:42.480Z,0.80
2018-09-01T04:39:11.995Z,1.30
2018-09-01T04:41:40.773Z,1.00
2018-09-01T04:44:08.998Z,1.23
2018-09-01T04:46:37.382Z,1.37
2018-09-01T04:49:05.556Z,1.13
2018-09-01T04:51:33.732Z,1.17
2018-09-01T04:54:01.910Z,1.27
2018-09-01T04:56:30.064Z,1.17
2018-09-01T04:58:58.880Z,1.00
2018-09-01T05:01:27.099Z,1.10
2018-09-01T05:03:55.214Z,1.57
2018-09-01T05:06:23.384Z,1.30
2018-09-01T05:08:51.680Z,0.70
2018-09-01T05:11:19.852Z,1.10
2018-09-01T05:13:48.025Z,0.80
2018-09-01T05:16:16.199Z,1.10
2018-09-01T05:18:44.373Z,1.00
2018-09-01T05:21:12.558Z,0.87
2018-09-01T05:23:40.738Z,1.07
2018-09-01T05:26:08.900Z,1.10
2018-09-01T05:28:37.085Z,1.30
2018-09-01T05:31:05.934Z,1.20
2018-09-01T05:33:34.107Z,1.43
2018-09-01T05:36:02.307Z,0.93
2018-09-01T05:38:30.443Z,1.03
2018-09-01T05:40:58.742Z,1.10
2018-09-01T05:43:26.924Z,1.07
2018-09-01T05:45:55.094Z,1.17
2018-09-01T05:48:23.273Z,1.33
2018-09-01T05:50:51.521Z,1.07
2018-09-01T05:53:19.668Z,1.70
2018-09-01T05:55:47.978Z,1.20
2018-09-01T05:58:16.155Z,1.20
2018-09-01T06:00:49.592Z,1.87
2018-09-01T06:03:17.992Z,1.20
2018-09-01T06:05:47.150Z,1.23
2018-09-01T06:08:15.638Z,1.00
2018-09-01T06:10:43.802Z,0.90
2018-09-01T06:13:12.012Z,0.80
2018-09-01T06:15:40.169Z,0.93
2018-09-01T06:18:08.631Z,1.17
2018-09-01T06:20:36.796Z,0.80
2018-09-01T06:23:05.396Z,1.37
2018-09-01T06:25:33.554Z,2.00
2018-09-01T06:28:08.221Z,1.73
2018-09-01T06:30:38.833Z,1.97
2018-09-01T06:33:07.004Z,2.03
2018-09-01T06:35:35.161Z,1.57
2018-09-01T06:38:03.324Z,1.40
2018-09-01T06:40:31.489Z,1.30
2018-09-01T06:42:59.851Z,1.00
2018-09-01T06:45:27.980Z,1.20
2018-09-01T06:47:56.135Z,1.17
2018-09-01T06:50:24.317Z,2.13
2018-09-01T06:52:52.488Z,4.27
2018-09-01T06:55:20.761Z,2.30
2018-09-01T06:57:49.036Z,2.10
2018-09-01T07:00:21.577Z,1.93
2018-09-01T07:02:50.191Z,3.67
2018-09-01T07:05:18.393Z,2.00
2018-09-01T07:07:46.873Z,1.83
2018-09-01T07:10:15.052Z,2.73
2018-09-01T07:12:43.362Z,3.77
2018-09-01T07:15:11.601Z,2.67
2018-09-01T07:17:39.780Z,4.43
2018-09-01T07:20:07.936Z,5.47
2018-09-01T07:22:36.137Z,7.37
2018-09-01T07:25:04.312Z,5.20
2018-09-01T07:27:32.555Z,5.53
2018-09-01T07:30:00.836Z,5.53
2018-09-01T07:32:28.912Z,5.43
2018-09-01T07:34:57.360Z,4.00
2018-09-01T07:37:25.532Z,6.90
2018-09-01T07:39:53.704Z,5.37
2018-09-01T07:42:21.875Z,5.67
2018-09-01T07:44:50.065Z,4.57
2018-09-01T07:47:18.224Z,4.07
2018-09-01T07:49:46.421Z,4.60
2018-09-01T07:52:14.660Z,5.57
2018-09-01T07:54:43.118Z,3.63
2018-09-01T07:57:11.261Z,4.93
2018-09-01T07:59:39.436Z,4.97
2018-09-01T08:02:07.668Z,4.13
2018-09-01T08:04:36.547Z,4.50
2018-09-01T08:07:04.927Z,5.07
2018-09-01T08:09:33.120Z,6.93
2018-09-01T08:12:01.292Z,6.03
2018-09-01T08:14:29.547Z,5.47
2018-09-01T08:16:57.833Z,5.73
2018-09-01T08:19:26.099Z,5.07
2018-09-01T08:21:54.328Z,6.13
2018-09-01T08:24:22.512Z,6.07
2018-09-01T08:26:50.725Z,8.17
2018-09-01T08:29:19.022Z,7.23
2018-09-01T08:31:47.476Z,5.37
2018-09-01T08:34:15.720Z,6.63
2018-09-01T08:36:43.933Z,5.37
2018-09-01T08:39:12.206Z,5.77
2018-09-01T08:41:40.424Z,4.90
2018-09-01T08:44:08.700Z,5.67
2018-09-01T08:46:36.890Z,5.53
2018-09-01T08:49:05.112Z,5.70
2018-09-01T08:51:33.291Z,5.87
2018-09-01T08:54:01.461Z,6.33
2018-09-01T08:56:29.651Z,5.53
2018-09-01T08:58:57.845Z,6.67
2018-09-01T09:01:26.448Z,4.03
2018-09-01T09:03:54.666Z,6.73
2018-09-01T09:06:22.940Z,6.73
2018-09-01T09:08:51.089Z,3.60
2018-09-01T09:11:19.266Z,4.23
2018-09-01T09:13:47.467Z,4.83
2018-09-01T09:16:17.218Z,4.13
2018-09-01T09:18:45.373Z,5.77
2018-09-01T09:21:13.569Z,5.33
2018-09-01T09:23:41.740Z,4.97
2018-09-01T09:26:09.924Z,3.83
2018-09-01T09:28:38.112Z,5.13
2018-09-01T09:31:06.305Z,3.50
2018-09-01T09:33:34.557Z,2.33
2018-09-01T09:36:02.739Z,4.03
2018-09-01T09:38:30.916Z,4.53
2018-09-01T09:40:59.096Z,3.50
2018-09-01T09:43:27.277Z,5.90
2018-09-01T09:45:55.451Z,4.07
2018-09-01T09:48:23.661Z,3.80
2018-09-01T09:50:51.841Z,4.23
2018-09-01T09:53:20.013Z,4.23
2018-09-01T09:55:48.187Z,3.70
2018-09-01T09:58:16.419Z,5.97
2018-09-01T10:00:49.832Z,4.13
2018-09-01T10:03:48.456Z,3.27
2018-09-01T10:06:16.628Z,4.20
2018-09-01T10:08:44.801Z,6.63
2018-09-01T10:11:13.052Z,5.40
2018-09-01T10:13:41.709Z,5.10
2018-09-01T10:16:09.877Z,4.03
2018-09-01T10:18:38.063Z,3.90
2018-09-01T10:21:06.220Z,4.80
2018-09-01T10:23:34.396Z,6.60
2018-09-01T10:26:02.572Z,3.53
2018-09-01T10:28:30.724Z,7.50
2018-09-01T10:30:58.920Z,3.30
2018-09-01T10:33:27.087Z,3.73
2018-09-01T10:35:55.372Z,4.70
2018-09-01T10:38:23.611Z,2.27
2018-09-01T10:40:51.764Z,4.23
2018-09-01T10:43:19.936Z,3.93
2018-09-01T10:45:48.295Z,3.47
2018-09-01T10:48:16.474Z,4.33
2018-09-01T10:50:44.646Z,2.80
2018-09-01T10:53:12.865Z,2.93
2018-09-01T10:55:41.047Z,4.03
2018-09-01T10:58:09.267Z,4.20
2018-09-01T11:00:37.435Z,3.93
2018-09-01T11:03:05.707Z,3.60
2018-09-01T11:05:33.950Z,5.93
2018-09-01T11:08:02.086Z,3.10
2018-09-01T11:10:30.256Z,3.63
2018-09-01T11:12:59.135Z,2.60
2018-09-01T11:15:27.307Z,3.93
2018-09-01T11:17:56.449Z,4.53
2018-09-01T11:20:24.620Z,2.33
2018-09-01T11:22:52.780Z,2.27
2018-09-01T11:25:21.032Z,4.10
2018-09-01T11:27:49.225Z,3.93
2018-09-01T11:30:17.401Z,2.70
2018-09-01T11:32:45.576Z,2.73
2018-09-01T11:35:13.754Z,3.50
2018-09-01T11:37:41.921Z,3.73
2018-09-01T11:40:10.211Z,4.37
2018-09-01T11:42:38.400Z,2.77
2018-09-01T11:45:06.560Z,2.57
2018-09-01T11:47:34.742Z,2.53
2018-09-01T11:50:02.933Z,2.00
2018-09-01T11:52:31.092Z,1.73
2018-09-01T11:54:59.265Z,1.53
2018-09-01T11:57:27.442Z,1.43
2018-09-01T11:59:55.732Z,1.53
2018-09-01T12:02:23.908Z,3.17
2018-09-01T12:04:52.074Z,2.80
2018-09-01T12:07:20.260Z,1.87
2018-09-01T12:09:48.425Z,1.80
2018-09-01T12:12:17.180Z,2.10
2018-09-01T12:14:45.387Z,2.67
2018-09-01T12:17:14.433Z,3.17
2018-09-01T12:19:42.612Z,2.73
2018-09-01T12:22:10.818Z,3.07
2018-09-01T12:24:39.059Z,4.63
2018-09-01T12:27:07.552Z,2.00
2018-09-01T12:29:35.940Z,1.80
2018-09-01T12:32:04.154Z,2.90
2018-09-01T12:34:32.388Z,1.00
2018-09-01T12:37:00.560Z,2.03
2018-09-01T12:39:28.738Z,2.60
2018-09-01T12:41:56.925Z,2.10
2018-09-01T12:44:25.087Z,1.80
2018-09-01T12:46:53.260Z,1.80
2018-09-01T12:49:21.451Z,2.30
2018-09-01T12:51:49.606Z,1.50
2018-09-01T12:54:17.775Z,2.70
2018-09-01T12:56:46.017Z,2.93
2018-09-01T12:59:14.237Z,2.50
2018-09-01T13:01:42.400Z,2.37
2018-09-01T13:04:10.577Z,2.07
2018-09-01T13:06:38.840Z,1.63
2018-09-01T13:09:07.421Z,2.13
2018-09-01T13:11:35.581Z,1.27
2018-09-01T13:14:03.756Z,1.30
2018-09-01T13:16:31.920Z,2.20
2018-09-01T13:19:00.089Z,2.00
2018-09-01T13:21:28.251Z,1.90
2018-09-01T13:23:56.460Z,2.07
2018-09-01T13:26:24.650Z,3.50
2018-09-01T13:28:53.028Z,1.93
2018-09-01T13:31:21.278Z,1.70
2018-09-01T13:33:49.481Z,2.17
2018-09-01T13:36:17.631Z,1.47
2018-09-01T13:38:45.827Z,2.30
2018-09-01T13:41:13.979Z,2.03
2018-09-01T13:43:42.188Z,2.37
2018-09-01T13:46:10.480Z,2.77
2018-09-01T13:48:38.556Z,1.80
2018-09-01T13:51:06.731Z,1.77
2018-09-01T13:53:35.135Z,4.03
2018-09-01T13:56:03.309Z,3.07
2018-09-01T13:58:31.472Z,2.47
2018-09-01T14:00:59.638Z,3.70
2018-09-01T14:03:27.808Z,4.17
2018-09-01T14:05:55.976Z,3.20
2018-09-01T14:08:24.152Z,2.47
2018-09-01T14:10:52.324Z,2.97
2018-09-01T14:13:20.489Z,3.43
2018-09-01T14:15:48.675Z,3.20
2018-09-01T14:18:16.852Z,3.60
2018-09-01T14:20:45.032Z,2.10
2018-09-01T14:23:13.208Z,2.33
2018-09-01T14:25:41.399Z,2.20
2018-09-01T14:28:09.571Z,2.70
2018-09-01T14:30:37.735Z,2.20
2018-09-01T14:33:06.090Z,3.67
2018-09-01T14:35:34.200Z,2.80
2018-09-01T14:38:02.381Z,3.03
2018-09-01T14:40:30.552Z,2.50
2018-09-01T14:42:58.765Z,3.03
2018-09-01T14:45:26.946Z,2.33
2018-09-01T14:47:55.112Z,1.80
2018-09-01T14:50:23.289Z,2.13
2018-09-01T14:52:51.454Z,1.87
2018-09-01T14:55:20.111Z,2.10
2018-09-01T14:57:48.296Z,2.00
2018-09-01T15:00:16.476Z,2.37
2018-09-01T15:02:45.496Z,1.87
2018-09-01T15:05:13.673Z,1.60
2018-09-01T15:07:41.839Z,1.07
2018-09-01T15:10:10.024Z,1.00
2018-09-01T15:12:38.192Z,2.20
2018-09-01T15:15:06.369Z,1.97
2018-09-01T15:17:34.533Z,2.10
2018-09-01T15:20:03.050Z,2.17
2018-09-01T15:22:31.231Z,2.37
2018-09-01T15:24:59.402Z,1.80
2018-09-01T15:27:27.751Z,1.50
2018-09-01T15:29:55.923Z,1.90
2018-09-01T15:32:24.128Z,2.37
2018-09-01T15:34:52.304Z,1.63
2018-09-01T15:37:20.468Z,1.93
2018-09-01T15:39:48.665Z,1.40
2018-09-01T15:42:16.829Z,1.47
2018-09-01T15:44:45.018Z,1.70
2018-09-01T15:47:13.177Z,1.10
2018-09-01T15:49:41.344Z,1.67
2018-09-01T15:52:09.513Z,1.80
2018-09-01T15:54:37.688Z,1.43
2018-09-01T15:57:06.011Z,1.60
2018-09-01T15:59:34.221Z,1.37
2018-09-01T16:02:02.528Z,1.27
2018-09-01T16:04:30.695Z,0.87
2018-09-01T16:06:58.954Z,1.67
2018-09-01T16:09:27.141Z,3.33
2018-09-01T16:11:55.462Z,1.83
2018-09-01T16:14:23.628Z,1.77
2018-09-01T16:16:51.796Z,2.30
2018-09-01T16:19:19.983Z,2.73
2018-09-01T16:21:48.181Z,1.93
2018-09-01T16:24:16.370Z,2.27
2018-09-01T16:26:44.546Z,2.27
2018-09-01T16:29:12.711Z,1.73
2018-09-01T16:31:40.889Z,1.30
2018-09-01T16:34:09.056Z,1.30
2018-09-01T16:36:37.416Z,1.00
2018-09-01T16:39:06.133Z,1.60
2018-09-01T16:41:34.312Z,1.20
2018-09-01T16:44:02.490Z,2.77
2018-09-01T16:46:30.664Z,2.73
2018-09-01T16:48:58.873Z,1.00
2018-09-01T16:51:27.063Z,1.80
2018-09-01T16:53:55.249Z,1.40
2018-09-01T16:56:23.428Z,1.93
2018-09-01T16:58:51.608Z,1.67
2018-09-01T17:01:19.790Z,1.93
2018-09-01T17:03:48.150Z,2.00
2018-09-01T17:06:16.353Z,1.83
2018-09-01T17:08:44.516Z,1.83
2018-09-01T17:11:12.696Z,2.50
2018-09-01T17:13:40.868Z,2.20
2018-09-01T17:16:09.045Z,1.90
2018-09-01T17:18:37.205Z,1.63
2018-09-01T17:21:05.545Z,2.50
2018-09-01T17:23:33.767Z,2.23
2018-09-01T17:26:01.931Z,1.90
2018-09-01T17:28:30.104Z,1.23
2018-09-01T17:30:58.293Z,2.50
2018-09-01T17:33:26.469Z,2.70
2018-09-01T17:35:54.649Z,2.37
2018-09-01T17:38:22.813Z,2.37
2018-09-01T17:40:51.181Z,3.13
2018-09-01T17:43:19.359Z,2.87
2018-09-01T17:45:47.558Z,1.73
2018-09-01T17:48:15.724Z,1.90
2018-09-01T17:50:43.918Z,2.17
2018-09-01T17:53:12.081Z,1.10
2018-09-01T17:55:40.251Z,1.30
2018-09-01T17:58:08.471Z,2.00
2018-09-01T18:00:36.664Z,1.70
2018-09-01T18:03:04.845Z,1.73
2018-09-01T18:05:33.015Z,1.70
2018-09-01T18:08:01.191Z,1.57
2018-09-01T18:10:29.352Z,1.30
2018-09-01T18:12:57.588Z,1.57
2018-09-01T18:15:25.755Z,1.73
2018-09-01T18:17:53.912Z,1.53
2018-09-01T18:20:22.090Z,2.10
2018-09-01T18:22:50.286Z,1.67
2018-09-01T18:25:18.452Z,0.87
2018-09-01T18:27:46.621Z,1.30
2018-09-01T18:30:14.776Z,1.07
2018-09-01T18:32:42.968Z,1.80
2018-09-01T18:35:11.519Z,1.40
2018-09-01T18:37:39.673Z,0.87
2018-09-01T18:40:07.836Z,0.70
2018-09-01T18:42:36.012Z,0.60
2018-09-01T18:45:04.446Z,0.60
2018-09-01T18:47:32.722Z,0.47
2018-09-01T18:50:00.791Z,0.60
2018-09-01T18:52:28.993Z,1.03
2018-09-01T18:54:57.181Z,1.03
2018-09-01T18:57:25.369Z,0.50
2018-09-01T18:59:53.552Z,1.57
2018-09-01T19:02:21.729Z,0.97
2018-09-01T19:04:50.222Z,1.17
2018-09-01T19:07:18.284Z,0.60
2018-09-01T19:09:46.427Z,0.70
2018-09-01T19:12:14.604Z,1.83
2018-09-01T19:14:42.778Z,0.67
2018-09-01T19:17:10.969Z,0.80
2018-09-01T19:19:39.125Z,0.50
2018-09-01T19:22:07.305Z,0.70
2018-09-01T19:24:35.492Z,0.40
2018-09-01T19:27:03.764Z,0.50
2018-09-01T19:29:31.855Z,0.90
2018-09-01T19:32:00.025Z,0.60
2018-09-01T19:34:28.193Z,0.60
2018-09-01T19:36:56.386Z,0.50
2018-09-01T19:39:24.569Z,0.67
2018-09-01T19:41:52.749Z,0.60
2018-09-01T19:44:21.017Z,0.60
2018-09-01T19:46:49.186Z,0.53
2018-09-01T19:49:17.356Z,0.83
2018-09-01T19:51:45.533Z,0.57
2018-09-01T19:54:13.717Z,0.77
2018-09-01T19:56:41.939Z,0.53
2018-09-01T19:59:10.139Z,0.60
2018-09-01T20:01:38.316Z,0.70
2018-09-01T20:04:06.484Z,0.60
2018-09-01T20:06:34.643Z,0.50
2018-09-01T20:09:02.871Z,0.90
2018-09-01T20:11:31.050Z,0.70
2018-09-01T20:13:59.285Z,0.60
2018-09-01T20:16:27.442Z,1.10
2018-09-01T20:18:55.619Z,0.83
2018-09-01T20:21:23.795Z,0.70
2018-09-01T20:23:51.984Z,1.37
2018-09-01T20:26:20.145Z,0.70
2018-09-01T20:28:48.359Z,0.70
2018-09-01T20:31:16.544Z,0.70
2018-09-01T20:33:44.723Z,0.67
2018-09-01T20:36:19.112Z,0.80
2018-09-01T20:38:47.285Z,1.10
2018-09-01T20:41:15.462Z,0.70
2018-09-01T20:43:43.657Z,0.60
2018-09-01T20:46:11.844Z,1.43
2018-09-01T20:48:40.036Z,0.60
2018-09-01T20:51:08.236Z,0.73
2018-09-01T20:53:36.413Z,1.67
2018-09-01T20:56:04.597Z,0.70
2018-09-01T20:58:32.769Z,0.60
2018-09-01T21:01:00.936Z,0.73
2018-09-01T21:03:29.128Z,0.70
2018-09-01T21:05:57.572Z,1.33
2018-09-01T21:08:25.749Z,1.00
2018-09-01T21:10:54.246Z,1.00
2018-09-01T21:13:22.408Z,1.10
2018-09-01T21:15:50.602Z,1.10
2018-09-01T21:18:19.223Z,0.90
2018-09-01T21:20:47.400Z,0.90
2018-09-01T21:23:15.680Z,1.10
2018-09-01T21:25:43.926Z,0.70
2018-09-01T21:28:12.123Z,1.30
2018-09-01T21:30:40.335Z,1.70
2018-09-01T21:33:08.535Z,1.47
2018-09-01T21:35:36.709Z,1.63
2018-09-01T21:38:04.886Z,1.20
2018-09-01T21:40:33.065Z,1.20
2018-09-01T21:43:01.237Z,1.40
2018-09-01T21:45:29.444Z,1.40
2018-09-01T21:47:57.622Z,1.07
2018-09-01T21:50:25.800Z,1.33
2018-09-01T21:52:53.969Z,1.10
2018-09-01T21:55:22.265Z,1.13
2018-09-01T21:57:50.447Z,1.20
2018-09-01T22:00:18.749Z,1.27
2018-09-01T22:02:46.925Z,2.10
2018-09-01T22:05:15.121Z,1.57
2018-09-01T22:07:43.328Z,1.43
2018-09-01T22:10:11.534Z,1.27
2018-09-01T22:12:39.714Z,2.27
2018-09-01T22:15:08.120Z,2.23
2018-09-01T22:17:36.321Z,1.90
2018-09-01T22:20:04.556Z,1.50
2018-09-01T22:22:32.844Z,1.60
2018-09-01T22:25:01.016Z,1.40
2018-09-01T22:27:29.200Z,1.30
2018-09-01T22:29:57.404Z,1.37
2018-09-01T22:32:25.615Z,1.23
2018-09-01T22:34:53.799Z,1.40
2018-09-01T22:37:21.969Z,1.37
2018-09-01T22:39:50.139Z,1.70
2018-09-01T22:42:18.329Z,1.70
2018-09-01T22:44:46.500Z,1.17
2018-09-01T22:47:17.688Z,1.53
2018-09-01T22:49:45.851Z,1.60
2018-09-01T22:52:14.056Z,2.20
2018-09-01T22:54:42.228Z,2.10
2018-09-01T22:57:10.412Z,2.13
2018-09-01T22:59:38.589Z,1.77
2018-09-01T23:02:06.764Z,2.07
2018-09-01T23:04:34.941Z,2.10
2018-09-01T23:07:03.135Z,1.43
2018-09-01T23:09:31.305Z,1.33
2018-09-01T23:11:59.473Z,1.23
2018-09-01T23:14:27.670Z,1.33
2018-09-01T23:16:55.885Z,1.70
2018-09-01T23:19:24.044Z,1.80
2018-09-01T23:21:52.224Z,2.23
2018-09-01T23:24:20.385Z,1.83
2018-09-01T23:26:48.554Z,1.50
2018-09-01T23:29:16.720Z,2.00
2018-09-01T23:31:44.898Z,1.57
2018-09-01T23:34:13.113Z,1.83
2018-09-01T23:36:41.297Z,1.47
2018-09-01T23:39:10.472Z,1.30
2018-09-01T23:41:38.686Z,1.50
2018-09-01T23:44:07.092Z,1.40
2018-09-01T23:46:35.370Z,2.10
2018-09-01T23:49:03.845Z,2.30
2018-09-01T23:51:32.105Z,1.33
2018-09-01T23:54:00.460Z,1.97
2018-09-01T23:56:28.654Z,1.60
2018-09-01T23:58:56.921Z,1.77
